Sconset, Massachusetts
Current Conditions -  °F | °C
As of 3:53 AM on Monday 24 Nov 2014 (Local Time) from KACK Reporting Station
Broken Clouds Broken Clouds  
Wind Chill: 53°   Ceiling: 10000
Heat Index: 53°   Visibility: 10mi
Dew Point: 49°   Wind: 15mph
Humidity: 86%   Direction: 130°SE
Pressure: 30.04"   Gusts: NA
Location:  41.2623°N, 69.9668°W
Report Text: KACK 240853Z AUTO 13013KT 10SM BKN100 12/09 A3004 RMK AO2 SLP172 T01170094 58026 $
Loading
Personal Weather Stations






























Interactive Weather Map New forecast layout! Learn more

10-Day Weather Forecast

Advertisements
Track Severe Weather on mobile